Time;durP1;ratioP1;P1;durP2;ratioP2;P2;SDS_P1;SDS_P2;PMS_P1;PMS_P2;Temp;Humidity;BMP_temperature;BMP_pressure;BME280_temperature;BME280_humidity;BME280_pressure;Samples;Min_cycle;Max_cycle;Signal;HPM_P1;HPM_P2
2023/06/26 00:00:19;;;;;;;11.05;9.88;;;22.00;99.90;;;;;;5057705;28;20089;-86
2023/06/26 00:02:45;;;;;;;11.32;10.18;;;22.00;99.90;;;;;;5057637;28;20036;-87
2023/06/26 00:05:11;;;;;;;11.23;9.35;;;22.00;99.90;;;;;;5073546;28;20178;-86
2023/06/26 00:07:37;;;;;;;10.90;9.80;;;22.00;99.90;;;;;;5056259;28;20044;-85
2023/06/26 00:10:03;;;;;;;10.75;9.65;;;22.00;99.90;;;;;;5056095;28;20048;-86
2023/06/26 00:12:30;;;;;;;12.55;8.90;;;21.90;99.90;;;;;;5054863;28;20040;-86
2023/06/26 00:14:55;;;;;;;15.07;9.52;;;21.90;99.90;;;;;;5057366;28;20122;-87
2023/06/26 00:17:22;;;;;;;11.85;9.48;;;21.90;99.90;;;;;;5073694;28;20040;-86
2023/06/26 00:19:48;;;;;;;10.77;9.70;;;21.90;99.90;;;;;;5056457;28;20452;-86
2023/06/26 00:22:14;;;;;;;11.55;9.73;;;21.80;99.90;;;;;;5058105;28;20384;-86
2023/06/26 00:24:39;;;;;;;11.93;10.02;;;21.80;99.90;;;;;;5038220;28;20123;-86
2023/06/26 00:27:05;;;;;;;14.07;9.60;;;21.80;99.90;;;;;;5055062;28;20040;-86
2023/06/26 00:29:31;;;;;;;10.45;9.45;;;21.70;99.90;;;;;;5038601;28;20405;-86
2023/06/26 00:31:57;;;;;;;11.13;9.73;;;21.70;99.90;;;;;;5054945;28;20043;-86
2023/06/26 00:34:22;;;;;;;11.60;9.50;;;21.70;99.90;;;;;;5054502;28;20467;-86
2023/06/26 00:36:48;;;;;;;11.35;10.18;;;21.70;99.90;;;;;;5054730;28;20100;-86
2023/06/26 00:39:15;;;;;;;11.65;9.70;;;21.70;99.90;;;;;;5038021;28;20310;-86
2023/06/26 00:41:41;;;;;;;10.27;9.18;;;21.60;99.90;;;;;;5071555;28;20037;-86
2023/06/26 00:44:07;;;;;;;11.07;9.75;;;21.60;99.90;;;;;;5054792;28;20040;-86
2023/06/26 00:46:34;;;;;;;11.18;9.68;;;21.60;99.90;;;;;;5038085;28;20968;-86
2023/06/26 00:49:05;;;;;;;10.65;9.48;;;21.60;99.90;;;;;;5070746;28;20115;-86
2023/06/26 00:51:31;;;;;;;10.75;9.75;;;21.60;99.90;;;;;;5054906;28;20098;-87
2023/06/26 00:53:57;;;;;;;12.65;9.43;;;21.50;99.90;;;;;;5054600;28;20036;-86
2023/06/26 00:56:23;;;;;;;10.20;9.10;;;21.50;99.90;;;;;;5038344;28;20040;-86
2023/06/26 00:58:49;;;;;;;10.27;8.98;;;21.50;99.90;;;;;;5071116;28;20048;-86
2023/06/26 01:01:17;;;;;;;10.52;9.45;;;21.60;99.90;;;;;;5053616;28;20037;-87
2023/06/26 01:03:51;;;;;;;11.00;9.85;;;21.50;99.90;;;;;;5038335;28;20036;-86
2023/06/26 01:06:17;;;;;;;10.77;9.63;;;21.50;99.90;;;;;;5054304;28;20094;-87
2023/06/26 01:08:45;;;;;;;12.88;8.93;;;21.50;99.90;;;;;;5037591;28;20056;-86
2023/06/26 01:11:11;;;;;;;11.98;9.10;;;21.50;99.90;;;;;;5037799;28;20040;-86
2023/06/26 01:13:38;;;;;;;10.00;8.98;;;21.50;99.90;;;;;;5037081;28;20029;-86
2023/06/26 01:16:05;;;;;;;10.70;9.68;;;21.50;99.90;;;;;;5038190;28;20367;-87
2023/06/26 01:18:32;;;;;;;10.63;9.52;;;21.50;99.90;;;;;;5070511;28;20045;-86
2023/06/26 01:21:01;;;;;;;11.10;9.70;;;21.50;99.90;;;;;;5053873;28;20044;-87
2023/06/26 01:23:47;;;;;;;10.93;9.20;;;21.40;99.90;;;;;;5037825;28;20090;-87
2023/06/26 01:26:20;;;;;;;10.25;8.82;;;21.40;99.90;;;;;;5103942;28;20044;-87
2023/06/26 01:28:48;;;;;;;16.50;9.68;;;21.50;99.90;;;;;;5070404;28;20040;-87
2023/06/26 01:31:15;;;;;;;10.75;9.60;;;21.40;99.90;;;;;;5070922;28;20073;-87
2023/06/26 01:33:42;;;;;;;11.70;9.68;;;21.40;99.90;;;;;;5053964;28;20052;-87
2023/06/26 01:36:08;;;;;;;11.48;9.52;;;21.30;99.90;;;;;;5070607;28;20036;-86
2023/06/26 01:38:36;;;;;;;10.18;9.20;;;21.40;99.90;;;;;;5070370;28;20033;-87
2023/06/26 01:41:04;;;;;;;11.23;10.00;;;21.40;99.90;;;;;;5037227;28;20040;-88
2023/06/26 01:43:54;;;;;;;11.27;10.02;;;21.40;99.90;;;;;;5053188;28;20068;-87
2023/06/26 01:46:45;;;;;;;11.20;10.10;;;21.40;99.90;;;;;;5070182;28;20102;-87
2023/06/26 01:49:20;;;;;;;11.90;10.00;;;21.30;99.90;;;;;;5069602;28;20472;-87
2023/06/26 01:51:51;;;;;;;14.73;10.57;;;21.30;99.90;;;;;;5053617;28;20137;-87
2023/06/26 01:54:23;;;;;;;11.38;10.10;;;21.30;99.90;;;;;;5069942;28;20060;-87
2023/06/26 01:56:52;;;;;;;;;;;21.30;99.90;;;;;;5070702;28;20051;-87
2023/06/26 01:59:20;;;;;;;11.15;10.07;;;21.30;99.90;;;;;;5052834;28;19924;-87
2023/06/26 02:01:46;;;;;;;11.73;10.52;;;21.30;99.90;;;;;;5070181;28;20389;-86
2023/06/26 02:04:12;;;;;;;11.82;10.20;;;21.20;99.90;;;;;;5053002;28;20124;-87
2023/06/26 02:06:38;;;;;;;11.27;10.18;;;21.20;99.90;;;;;;5053047;28;20448;-87
2023/06/26 02:09:03;;;;;;;11.23;10.13;;;21.20;99.90;;;;;;5035946;28;20046;-87
2023/06/26 02:11:29;;;;;;;11.60;10.27;;;21.10;99.90;;;;;;5052794;28;20469;-87
2023/06/26 02:13:55;;;;;;;12.23;10.30;;;21.10;99.90;;;;;;5036041;28;20336;-87
2023/06/26 02:16:20;;;;;;;12.95;10.95;;;21.10;99.90;;;;;;5036588;28;20037;-86
2023/06/26 02:18:46;;;;;;;12.32;11.05;;;21.00;99.90;;;;;;5057288;28;20051;-87
2023/06/26 02:21:13;;;;;;;12.15;9.93;;;21.00;99.90;;;;;;5058224;28;20041;-87
2023/06/26 02:23:39;;;;;;;12.15;10.98;;;20.90;99.90;;;;;;5035996;28;20044;-87
2023/06/26 02:26:04;;;;;;;12.05;10.85;;;20.90;99.90;;;;;;5053841;28;20081;-88
2023/06/26 02:28:31;;;;;;;13.60;10.80;;;20.90;99.90;;;;;;5052407;28;20044;-87
2023/06/26 02:30:56;;;;;;;12.43;10.63;;;20.80;99.90;;;;;;5036306;28;20039;-87
2023/06/26 02:33:22;;;;;;;12.63;11.02;;;20.80;99.90;;;;;;5036035;28;20036;-87
2023/06/26 02:35:50;;;;;;;11.75;10.55;;;20.80;99.90;;;;;;5036761;28;20048;-86
2023/06/26 02:38:15;;;;;;;12.95;10.10;;;20.80;99.90;;;;;;5037479;28;20037;-87
2023/06/26 02:40:41;;;;;;;12.18;10.93;;;20.80;99.90;;;;;;5053024;28;20444;-86
2023/06/26 02:43:07;;;;;;;14.85;11.10;;;20.70;99.90;;;;;;5036902;28;20041;-86
2023/06/26 02:45:33;;;;;;;13.05;10.73;;;20.70;99.90;;;;;;5053098;28;20044;-87
2023/06/26 02:47:58;;;;;;;12.73;11.15;;;20.70;99.90;;;;;;5036025;28;20044;-87
2023/06/26 02:50:24;;;;;;;12.90;11.35;;;20.60;99.90;;;;;;5036357;28;20067;-87
2023/06/26 02:52:52;;;;;;;11.65;10.45;;;20.60;99.90;;;;;;5036169;28;20037;-87
2023/06/26 02:55:19;;;;;;;13.55;11.02;;;20.60;99.90;;;;;;5052984;28;20116;-87
2023/06/26 02:57:45;;;;;;;12.40;11.07;;;20.60;99.90;;;;;;5036300;28;20127;-88
2023/06/26 03:00:11;;;;;;;12.82;11.45;;;20.60;99.90;;;;;;5035271;28;20127;-87
2023/06/26 03:02:37;;;;;;;13.88;11.45;;;20.60;99.90;;;;;;5035597;28;20036;-87
2023/06/26 03:05:04;;;;;;;15.20;12.18;;;20.60;99.90;;;;;;5035584;28;20028;-89
2023/06/26 03:07:29;;;;;;;13.32;11.95;;;20.70;99.90;;;;;;5036025;28;20123;-88
2023/06/26 03:09:55;;;;;;;14.68;11.73;;;20.70;99.90;;;;;;5068167;28;20139;-88
2023/06/26 03:12:21;;;;;;;16.08;12.75;;;20.70;99.90;;;;;;5035015;28;20517;-88
2023/06/26 03:14:47;;;;;;;13.50;12.10;;;20.70;99.90;;;;;;5051814;28;20047;-87
2023/06/26 03:17:12;;;;;;;13.15;11.75;;;20.70;99.90;;;;;;5035414;28;20058;-87
2023/06/26 03:19:38;;;;;;;13.60;11.85;;;20.70;99.90;;;;;;5051799;28;20037;-88
2023/06/26 03:22:04;;;;;;;15.35;12.68;;;20.70;99.90;;;;;;5035768;28;20045;-88
2023/06/26 03:31:01;;;;;;;14.68;11.70;;;20.80;99.90;;;;;;5054677;28;20110;-65
2023/06/26 03:33:26;;;;;;;15.00;11.93;;;20.70;99.90;;;;;;5073448;28;20398;-65
2023/06/26 03:35:52;;;;;;;13.70;12.23;;;20.70;99.90;;;;;;5073031;28;20048;-64
2023/06/26 03:38:18;;;;;;;13.10;11.40;;;20.80;99.90;;;;;;5073181;28;20040;-65
2023/06/26 03:40:44;;;;;;;15.05;12.05;;;20.80;99.90;;;;;;5038282;28;20098;-65
2023/06/26 03:43:10;;;;;;;12.82;11.52;;;20.70;99.90;;;;;;5071921;28;20044;-65
2023/06/26 03:45:35;;;;;;;13.68;12.25;;;20.80;99.90;;;;;;5072964;28;20043;-65
2023/06/26 03:48:01;;;;;;;12.98;11.52;;;20.80;99.90;;;;;;5038942;28;20409;-65
2023/06/26 03:50:27;;;;;;;12.55;11.20;;;20.80;99.90;;;;;;5055466;28;20052;-65
2023/06/26 03:52:54;;;;;;;13.82;11.15;;;20.80;99.90;;;;;;5073227;28;20036;-65
2023/06/26 03:55:22;;;;;;;14.27;12.20;;;20.80;99.90;;;;;;5054981;28;20083;-65
2023/06/26 03:57:48;;;;;;;13.38;11.70;;;20.90;99.90;;;;;;5055091;28;20045;-65
2023/06/26 04:00:14;;;;;;;13.73;11.60;;;20.90;99.90;;;;;;5055193;28;20090;-65
2023/06/26 04:02:40;;;;;;;14.10;12.38;;;20.90;99.90;;;;;;5055239;28;20071;-64
2023/06/26 04:05:06;;;;;;;13.60;12.20;;;20.90;99.90;;;;;;5072875;28;20485;-65
2023/06/26 04:07:31;;;;;;;14.38;12.88;;;20.90;99.90;;;;;;5072965;28;20047;-65
2023/06/26 04:09:58;;;;;;;13.55;12.10;;;21.00;99.90;;;;;;5073106;28;20098;-65
2023/06/26 04:12:23;;;;;;;13.85;12.45;;;21.00;99.90;;;;;;5072966;28;20394;-65
2023/06/26 04:14:49;;;;;;;16.15;12.65;;;21.00;99.90;;;;;;5071805;28;20127;-65
2023/06/26 04:17:15;;;;;;;14.45;12.20;;;21.00;99.90;;;;;;5034990;28;20506;-65
2023/06/26 04:19:40;;;;;;;14.70;12.85;;;21.00;99.90;;;;;;5033829;28;20051;-65
2023/06/26 04:22:06;;;;;;;15.07;13.43;;;21.00;99.90;;;;;;5071386;28;20071;-64
2023/06/26 04:24:32;;;;;;;14.40;12.90;;;21.00;99.90;;;;;;5071479;28;20036;-65
2023/06/26 04:26:58;;;;;;;17.42;13.13;;;21.00;99.90;;;;;;5062880;28;20456;-65
2023/06/26 04:29:27;;;;;;;16.55;12.52;;;21.00;99.90;;;;;;5072443;28;20041;-65
2023/06/26 04:31:57;;;;;;;15.52;13.15;;;21.00;99.90;;;;;;5072518;28;20040;-64
2023/06/26 04:34:24;;;;;;;14.35;12.38;;;21.00;99.90;;;;;;5054526;28;20049;-65
2023/06/26 04:36:50;;;;;;;16.10;13.18;;;21.00;99.90;;;;;;5072230;28;20094;-65
2023/06/26 04:39:16;;;;;;;14.38;12.55;;;21.00;99.90;;;;;;5072468;28;20040;-64
2023/06/26 04:41:43;;;;;;;16.60;13.65;;;21.00;99.90;;;;;;5054539;28;20486;-65
2023/06/26 04:44:09;;;;;;;15.60;13.90;;;21.00;99.90;;;;;;5054171;28;20045;-65
2023/06/26 04:46:36;;;;;;;14.50;13.00;;;21.00;99.90;;;;;;5054266;28;20044;-65
2023/06/26 04:49:03;;;;;;;16.10;13.82;;;21.00;99.90;;;;;;5054382;28;20043;-65
2023/06/26 04:51:29;;;;;;;14.63;13.05;;;21.00;99.90;;;;;;5054136;28;20596;-65
2023/06/26 04:53:54;;;;;;;18.60;13.52;;;21.10;99.90;;;;;;5072177;28;20111;-65
2023/06/26 04:56:20;;;;;;;16.83;14.70;;;21.10;99.90;;;;;;5070755;28;20037;-65
2023/06/26 04:58:46;;;;;;;15.90;13.63;;;21.10;99.90;;;;;;5053957;28;20379;-65
2023/06/26 05:01:13;;;;;;;15.82;14.10;;;21.10;99.90;;;;;;5053764;28;20090;-65
2023/06/26 05:03:39;;;;;;;15.25;13.25;;;21.10;99.90;;;;;;5072121;28;20174;-65
2023/06/26 05:06:05;;;;;;;14.07;12.60;;;21.10;99.90;;;;;;5071675;28;20063;-65
2023/06/26 05:08:31;;;;;;;17.85;13.93;;;21.20;99.90;;;;;;5071587;28;20079;-65
2023/06/26 05:10:59;;;;;;;13.95;12.10;;;21.10;99.90;;;;;;5053633;28;20170;-64
2023/06/26 05:13:26;;;;;;;15.18;12.85;;;21.10;99.90;;;;;;5054151;28;20123;-65
2023/06/26 05:15:54;;;;;;;13.32;11.90;;;21.10;99.90;;;;;;5071576;28;20047;-65
2023/06/26 05:18:19;;;;;;;15.07;12.48;;;21.20;99.90;;;;;;5071665;28;20037;-65
2023/06/26 05:20:45;;;;;;;14.00;12.18;;;21.20;99.90;;;;;;5071508;28;20090;-65
2023/06/26 05:23:12;;;;;;;17.60;12.50;;;21.30;99.90;;;;;;5071419;28;20051;-65
2023/06/26 05:25:38;;;;;;;14.98;11.85;;;21.40;99.90;;;;;;5071641;28;20072;-65
2023/06/26 05:28:05;;;;;;;13.23;11.15;;;21.50;99.90;;;;;;5070946;28;20044;-65
2023/06/26 05:30:34;;;;;;;16.15;11.15;;;21.50;99.90;;;;;;5071201;28;20052;-65
2023/06/26 05:33:00;;;;;;;14.75;11.02;;;21.50;99.90;;;;;;5071488;28;20071;-65
2023/06/26 05:35:32;;;;;;;14.05;10.57;;;21.50;99.90;;;;;;5071294;28;20040;-65
2023/06/26 05:37:58;;;;;;;14.20;9.95;;;21.50;99.90;;;;;;5071253;28;20098;-65
2023/06/26 05:40:25;;;;;;;18.80;10.32;;;21.60;99.90;;;;;;5071343;28;20509;-65
2023/06/26 05:42:51;;;;;;;11.52;8.52;;;21.60;99.90;;;;;;5052848;28;20336;-65
2023/06/26 05:45:16;;;;;;;16.38;7.78;;;21.50;99.90;;;;;;5052967;28;20048;-65
2023/06/26 05:47:42;;;;;;;15.07;7.22;;;21.50;99.90;;;;;;5034261;28;20044;-65
2023/06/26 05:50:09;;;;;;;15.82;8.50;;;21.40;99.90;;;;;;5071066;28;20041;-65
2023/06/26 05:52:36;;;;;;;14.75;7.55;;;21.40;99.90;;;;;;5070708;28;20509;-65
2023/06/26 05:55:02;;;;;;;18.23;8.05;;;21.40;99.90;;;;;;5032929;28;20052;-65
2023/06/26 05:57:30;;;;;;;16.88;8.55;;;21.40;99.90;;;;;;5045364;28;20068;-65
2023/06/26 05:59:56;;;;;;;13.70;7.95;;;21.40;99.90;;;;;;5070895;28;20129;-66
2023/06/26 06:02:22;;;;;;;11.65;7.47;;;21.40;99.90;;;;;;5052576;28;20040;-65
2023/06/26 06:04:47;;;;;;;20.70;9.18;;;21.30;99.90;;;;;;5070776;28;20135;-65
2023/06/26 06:07:13;;;;;;;12.95;8.10;;;21.30;99.90;;;;;;5052597;28;20052;-65
2023/06/26 06:09:39;;;;;;;12.85;7.72;;;21.20;99.90;;;;;;5052454;28;20040;-65
2023/06/26 06:12:06;;;;;;;13.93;7.40;;;21.10;99.90;;;;;;5052873;28;20040;-65
2023/06/26 06:14:32;;;;;;;14.98;7.63;;;21.10;99.90;;;;;;5053016;28;20431;-65
2023/06/26 06:16:58;;;;;;;12.98;7.88;;;21.10;99.90;;;;;;5070796;28;20041;-65
2023/06/26 06:19:24;;;;;;;14.15;7.35;;;21.10;99.90;;;;;;5032590;28;20123;-65
2023/06/26 06:21:49;;;;;;;14.43;7.90;;;21.10;99.90;;;;;;5069577;28;20040;-65
2023/06/26 06:24:15;;;;;;;11.50;6.88;;;21.10;99.90;;;;;;5070157;28;20044;-65
2023/06/26 06:26:41;;;;;;;12.10;7.18;;;21.10;99.90;;;;;;5034137;28;20037;-65
2023/06/26 06:29:07;;;;;;;10.60;7.68;;;21.10;99.90;;;;;;5035514;28;20529;-65
2023/06/26 06:31:32;;;;;;;12.52;7.13;;;21.20;99.90;;;;;;5048973;28;20041;-72
2023/06/26 06:33:58;;;;;;;13.23;7.30;;;21.20;99.90;;;;;;5048992;28;20396;-72
2023/06/26 06:36:24;;;;;;;12.32;6.68;;;21.30;99.90;;;;;;5049017;28;20064;-71
2023/06/26 06:38:50;;;;;;;12.85;7.15;;;21.30;99.90;;;;;;5069086;28;20409;-71
2023/06/26 06:41:16;;;;;;;10.00;6.90;;;21.30;99.90;;;;;;5015854;28;20037;-70
2023/06/26 06:43:42;;;;;;;12.60;6.45;;;21.30;99.90;;;;;;5050043;28;20044;-70
2023/06/26 06:46:08;;;;;;;11.25;6.25;;;21.30;99.90;;;;;;5052335;28;20055;-70
2023/06/26 06:48:34;;;;;;;11.25;5.75;;;21.30;99.90;;;;;;5032505;28;20045;-69
2023/06/26 06:51:00;;;;;;;8.15;5.18;;;21.20;99.90;;;;;;5070166;28;20097;-70
2023/06/26 06:53:26;;;;;;;8.93;5.00;;;21.20;99.90;;;;;;5052018;28;20094;-71
2023/06/26 06:55:52;;;;;;;5.35;4.05;;;21.20;99.90;;;;;;5069996;28;20079;-70
2023/06/26 06:58:19;;;;;;;9.70;3.92;;;21.30;99.90;;;;;;5069747;28;20029;-70
2023/06/26 07:00:45;;;;;;;6.65;3.47;;;21.20;99.90;;;;;;5037853;28;20049;-71
2023/06/26 07:03:11;;;;;;;8.63;3.40;;;21.20;99.90;;;;;;5056545;28;20040;-70
2023/06/26 07:05:37;;;;;;;9.55;3.17;;;21.10;99.90;;;;;;5056061;28;20401;-70
2023/06/26 07:08:03;;;;;;;6.50;3.10;;;21.20;99.90;;;;;;5055925;28;20052;-71
2023/06/26 07:10:29;;;;;;;7.88;3.10;;;21.30;99.90;;;;;;5073859;28;20433;-70
2023/06/26 07:12:55;;;;;;;6.50;3.00;;;21.40;99.90;;;;;;5055852;28;20072;-71
2023/06/26 07:15:21;;;;;;;6.25;3.15;;;21.60;99.90;;;;;;5073870;28;20141;-70
2023/06/26 07:17:47;;;;;;;7.40;3.45;;;21.70;99.90;;;;;;5038197;28;20048;-71
2023/06/26 07:20:15;;;;;;;7.72;3.10;;;21.90;99.90;;;;;;5073758;28;20040;-71
2023/06/26 07:22:42;;;;;;;5.53;3.13;;;21.90;99.90;;;;;;5053942;28;20457;-71
2023/06/26 07:25:11;;;;;;;7.55;3.10;;;22.00;99.90;;;;;;5055652;28;20048;-70
2023/06/26 07:27:37;;;;;;;6.60;3.10;;;22.00;99.90;;;;;;5055388;28;20048;-70
2023/06/26 07:30:03;;;;;;;8.32;3.03;;;22.10;99.90;;;;;;5055138;28;20055;-71
2023/06/26 07:32:29;;;;;;;7.13;2.40;;;22.10;99.90;;;;;;5035690;28;20037;-71
2023/06/26 07:34:55;;;;;;;4.82;2.20;;;22.20;99.90;;;;;;5054920;28;20063;-71
2023/06/26 07:37:21;;;;;;;4.70;2.55;;;22.20;99.90;;;;;;5055359;28;20040;-70
2023/06/26 07:39:48;;;;;;;6.25;2.33;;;22.20;99.90;;;;;;5054053;28;20131;-70
2023/06/26 07:42:14;;;;;;;4.47;2.10;;;22.30;99.90;;;;;;5055738;28;20049;-71
2023/06/26 07:44:42;;;;;;;6.25;2.28;;;22.30;99.90;;;;;;5053266;28;20409;-70
2023/06/26 07:47:08;;;;;;;4.82;2.85;;;22.20;99.90;;;;;;5055549;28;20237;-70
2023/06/26 07:49:33;;;;;;;3.90;2.45;;;22.10;99.90;;;;;;5073276;28;20048;-70
2023/06/26 07:51:59;;;;;;;5.00;2.10;;;22.00;99.90;;;;;;5055515;28;20127;-70
2023/06/26 07:54:25;;;;;;;4.57;2.25;;;22.10;99.90;;;;;;5073120;28;20072;-70
2023/06/26 07:57:00;;;;;;;7.50;2.17;;;22.20;99.90;;;;;;5073063;28;20052;-70
2023/06/26 07:59:28;;;;;;;5.95;2.15;;;22.30;99.90;;;;;;5054910;28;20041;-69
2023/06/26 08:01:56;;;;;;;8.80;2.47;;;22.40;99.90;;;;;;5055088;28;20048;-71
2023/06/26 08:04:24;;;;;;;5.20;2.30;;;22.50;99.90;;;;;;5072714;28;20398;-70
2023/06/26 08:06:51;;;;;;;14.25;2.65;;;22.60;99.90;;;;;;5072939;28;20045;-70
2023/06/26 08:09:20;;;;;;;3.45;2.10;;;22.60;99.90;;;;;;5054852;28;20093;-70
2023/06/26 08:11:46;;;;;;;5.28;3.47;;;22.60;99.90;;;;;;5072935;28;20418;-70
2023/06/26 08:14:13;;;;;;;6.18;2.20;;;22.70;99.90;;;;;;5054797;28;20049;-70
2023/06/26 08:16:39;;;;;;;6.05;2.53;;;22.80;99.90;;;;;;5073242;28;20051;-69
2023/06/26 08:19:05;;;;;;;6.95;2.38;;;22.80;99.90;;;;;;5072482;28;20494;-69
2023/06/26 08:21:31;;;;;;;6.50;2.40;;;22.90;99.90;;;;;;5054738;28;20058;-69
2023/06/26 08:23:57;;;;;;;4.43;2.25;;;23.10;99.90;;;;;;5051587;28;20048;-70
2023/06/26 08:26:23;;;;;;;4.85;2.15;;;23.20;99.90;;;;;;5067766;28;20028;-70
2023/06/26 08:28:49;;;;;;;5.00;2.13;;;23.30;99.40;;;;;;5054095;28;20508;-69
2023/06/26 08:31:15;;;;;;;5.60;2.42;;;23.20;99.10;;;;;;5072253;28;20084;-70
2023/06/26 08:33:41;;;;;;;5.13;1.80;;;23.10;98.60;;;;;;5054691;28;20045;-70
2023/06/26 08:36:06;;;;;;;5.85;2.05;;;22.90;98.40;;;;;;5072552;28;20110;-71
2023/06/26 08:38:32;;;;;;;3.17;1.92;;;22.70;98.30;;;;;;5054691;28;20055;-70
2023/06/26 08:40:58;;;;;;;4.63;2.05;;;22.70;98.60;;;;;;5072195;28;20509;-70
2023/06/26 08:43:26;;;;;;;4.70;2.40;;;22.90;98.40;;;;;;5034481;28;20040;-70
2023/06/26 08:45:52;;;;;;;4.70;2.33;;;23.00;97.90;;;;;;5053588;28;20122;-70
2023/06/26 08:48:20;;;;;;;4.03;2.03;;;23.10;97.40;;;;;;5054208;28;20048;-70
2023/06/26 08:50:48;;;;;;;7.82;2.28;;;23.20;97.50;;;;;;5071999;28;20486;-70
2023/06/26 08:53:33;;;;;;;3.28;2.08;;;23.40;98.00;;;;;;5034240;28;20088;-70
2023/06/26 08:56:00;;;;;;;5.10;2.38;;;23.60;97.70;;;;;;5042566;28;20501;-70
2023/06/26 08:58:26;;;;;;;6.00;2.40;;;23.80;97.70;;;;;;5067307;28;20072;-70
2023/06/26 09:00:52;;;;;;;6.30;2.10;;;23.70;96.80;;;;;;5053929;28;20045;-70
2023/06/26 09:03:18;;;;;;;4.25;2.30;;;23.80;97.50;;;;;;5071892;28;20040;-70
2023/06/26 09:05:44;;;;;;;12.35;2.63;;;23.90;97.40;;;;;;5053972;28;20033;-71
2023/06/26 09:08:10;;;;;;;8.18;2.58;;;24.00;97.50;;;;;;5053875;28;20520;-70
2023/06/26 09:10:36;;;;;;;3.15;2.13;;;23.90;96.90;;;;;;5053585;28;20040;-70
2023/06/26 09:13:02;;;;;;;3.90;2.05;;;24.00;96.80;;;;;;5034109;28;20540;-70
2023/06/26 09:15:46;;;;;;;3.63;1.83;;;23.90;96.90;;;;;;5046398;28;20063;-71
2023/06/26 09:18:16;;;;;;;2.65;2.10;;;24.00;96.60;;;;;;5065402;28;20036;-70
2023/06/26 09:20:42;;;;;;;5.00;2.10;;;23.70;96.20;;;;;;5037052;28;20185;-71
2023/06/26 09:23:08;;;;;;;3.58;2.10;;;23.60;96.60;;;;;;5049557;28;20072;-70
2023/06/26 09:25:39;;;;;;;4.82;2.25;;;23.70;97.30;;;;;;5068058;28;20045;-70
2023/06/26 09:28:06;;;;;;;7.93;2.20;;;24.00;96.70;;;;;;5071139;28;20049;-70
2023/06/26 09:30:35;;;;;;;5.43;2.38;;;24.10;96.40;;;;;;5053312;28;20132;-70
2023/06/26 09:33:14;;;;;;;3.72;2.25;;;24.30;96.10;;;;;;5071290;28;20511;-70
2023/06/26 09:35:40;;;;;;;4.22;2.42;;;24.10;95.70;;;;;;5071146;28;20041;-70
2023/06/26 09:38:05;;;;;;;4.88;2.03;;;23.90;95.90;;;;;;5053176;28;20056;-72
2023/06/26 09:40:31;;;;;;;6.43;2.33;;;23.80;95.80;;;;;;5053031;28;20085;-71
2023/06/26 09:43:05;;;;;;;6.60;2.42;;;23.70;95.20;;;;;;5050167;28;20174;-71
2023/06/26 09:45:37;;;;;;;3.58;2.30;;;23.90;95.80;;;;;;5046025;28;20134;-71
2023/06/26 09:48:04;;;;;;;4.47;2.50;;;24.10;95.70;;;;;;5063857;28;20276;-71
2023/06/26 09:50:37;;;;;;;4.70;2.40;;;24.60;95.80;;;;;;5070956;28;20033;-70
2023/06/26 09:53:13;;;;;;;6.05;2.35;;;24.60;94.90;;;;;;5053445;28;20049;-70
2023/06/26 09:55:43;;;;;;;6.28;2.50;;;24.40;95.00;;;;;;5053186;28;20045;-70
2023/06/26 09:58:17;;;;;;;5.03;2.42;;;24.20;95.30;;;;;;5049602;28;20041;-70
2023/06/26 10:00:43;;;;;;;5.35;2.60;;;24.40;95.50;;;;;;5068882;28;20044;-70
2023/06/26 10:03:12;;;;;;;7.15;2.90;;;24.60;95.50;;;;;;5036515;28;20136;-70
2023/06/26 10:05:39;;;;;;;4.88;2.30;;;24.80;95.10;;;;;;5052875;28;20066;-70
2023/06/26 10:08:05;;;;;;;6.03;2.20;;;24.60;93.90;;;;;;5070583;28;20043;-70
2023/06/26 10:10:34;;;;;;;4.43;2.60;;;24.20;93.20;;;;;;5052858;28;20044;-70
2023/06/26 10:13:23;;;;;;;6.20;2.67;;;24.40;94.20;;;;;;5052648;28;20457;-70
2023/06/26 10:15:51;;;;;;;5.10;2.72;;;24.50;94.40;;;;;;5052195;28;20190;-70
2023/06/26 10:18:18;;;;;;;9.20;2.58;;;24.60;94.20;;;;;;5070704;28;20429;-70
2023/06/26 10:20:48;;;;;;;4.28;2.08;;;24.70;93.90;;;;;;5070705;28;20402;-70
2023/06/26 10:23:16;;;;;;;4.05;2.10;;;24.80;92.60;;;;;;5052711;28;20500;-71
2023/06/26 10:25:45;;;;;;;5.60;2.03;;;24.90;92.40;;;;;;5034128;28;20045;-70
2023/06/26 10:28:12;;;;;;;5.38;2.65;;;24.80;91.40;;;;;;5035673;28;20317;-70
2023/06/26 10:30:39;;;;;;;4.47;2.30;;;24.90;91.40;;;;;;5052458;28;20442;-70
2023/06/26 10:33:07;;;;;;;2.65;1.90;;;24.90;90.90;;;;;;5070278;28;20353;-71
2023/06/26 10:35:33;;;;;;;2.80;1.83;;;24.90;90.80;;;;;;5016162;28;20072;-71
2023/06/26 10:38:03;;;;;;;3.58;2.28;;;24.40;89.40;;;;;;5035641;28;20071;-71
2023/06/26 10:40:40;;;;;;;6.47;2.67;;;24.40;90.10;;;;;;5070428;28;20040;-71
2023/06/26 10:43:08;;;;;;;5.55;2.20;;;24.30;90.40;;;;;;5032447;28;20116;-69
2023/06/26 10:45:35;;;;;;;5.45;2.20;;;24.20;90.70;;;;;;5029709;28;20037;-69
2023/06/26 10:48:01;;;;;;;2.90;2.05;;;24.30;90.90;;;;;;5052191;28;20433;-69
2023/06/26 10:50:31;;;;;;;3.72;2.35;;;24.20;91.00;;;;;;5052345;28;20048;-68
2023/06/26 10:53:27;;;;;;;5.80;2.25;;;24.10;90.10;;;;;;5070320;28;20434;-68
2023/06/26 10:56:00;;;;;;;5.10;2.30;;;24.00;91.30;;;;;;5070301;28;20036;-69
2023/06/26 10:58:31;;;;;;;4.35;2.10;;;23.90;91.00;;;;;;5070135;28;20041;-68
2023/06/26 11:01:22;;;;;;;5.50;2.13;;;24.10;90.40;;;;;;5048906;28;20044;-68
2023/06/26 11:04:02;;;;;;;5.47;2.30;;;24.30;88.50;;;;;;5068728;28;20468;-68
2023/06/26 11:06:29;;;;;;;3.65;2.00;;;24.60;88.10;;;;;;5070213;28;20040;-67
2023/06/26 11:09:00;;;;;;;5.75;2.17;;;24.60;87.10;;;;;;5070042;28;20448;-68
2023/06/26 11:12:04;;;;;;;5.57;2.63;;;24.20;87.20;;;;;;5070256;28;20490;-69
2023/06/26 11:14:31;;;;;;;6.80;2.40;;;23.90;89.40;;;;;;5070097;28;20041;-69
2023/06/26 11:16:57;;;;;;;6.07;2.63;;;23.90;90.20;;;;;;5070085;28;20493;-68
2023/06/26 11:19:26;;;;;;;8.02;2.90;;;23.90;89.90;;;;;;5051940;28;20047;-69
2023/06/26 11:21:57;;;;;;;4.53;2.72;;;24.10;90.10;;;;;;5052136;28;20052;-69
2023/06/26 11:24:23;;;;;;;4.03;2.38;;;24.20;90.40;;;;;;5035357;28;20044;-68
2023/06/26 11:26:49;;;;;;;6.85;2.65;;;24.30;90.40;;;;;;5051201;28;20040;-68
2023/06/26 11:29:15;;;;;;;5.18;2.60;;;24.20;90.50;;;;;;5069492;28;20048;-69
2023/06/26 11:31:41;;;;;;;4.20;2.00;;;23.80;90.30;;;;;;5069752;28;20505;-70
2023/06/26 11:34:12;;;;;;;3.75;2.15;;;23.60;89.50;;;;;;5015725;28;20071;-69
2023/06/26 11:36:39;;;;;;;5.18;2.67;;;23.40;89.50;;;;;;5049306;28;20051;-69
2023/06/26 11:39:06;;;;;;;5.22;2.25;;;23.60;90.30;;;;;;5069672;28;20447;-70
2023/06/26 11:41:33;;;;;;;4.40;2.38;;;23.80;89.80;;;;;;5069947;28;20071;-70
2023/06/26 11:44:20;;;;;;;2.50;1.92;;;24.10;88.00;;;;;;5069612;28;20041;-70
2023/06/26 11:46:45;;;;;;;5.78;2.60;;;24.20;82.70;;;;;;5055286;28;20045;-71
2023/06/26 11:49:11;;;;;;;7.70;2.05;;;24.30;83.30;;;;;;5055125;28;20132;-70
2023/06/26 11:51:37;;;;;;;4.40;2.17;;;24.40;83.30;;;;;;5036159;28;20037;-71
2023/06/26 11:54:04;;;;;;;1.95;1.48;;;24.50;82.30;;;;;;5035371;28;20032;-71
2023/06/26 11:56:30;;;;;;;3.92;2.15;;;24.50;81.50;;;;;;5069493;28;20068;-69
2023/06/26 11:59:06;;;;;;;5.70;2.20;;;24.40;83.50;;;;;;5073082;28;20062;-70
2023/06/26 12:01:37;;;;;;;5.65;2.00;;;24.60;83.10;;;;;;5035293;28;20509;-70
2023/06/26 12:04:08;;;;;;;5.03;1.98;;;24.60;83.50;;;;;;5073027;28;20035;-71
2023/06/26 12:06:35;;;;;;;4.63;2.17;;;24.50;82.70;;;;;;5038713;28;20115;-70
2023/06/26 12:09:05;;;;;;;5.88;2.15;;;24.60;83.70;;;;;;5055000;28;20041;-70
2023/06/26 12:11:31;;;;;;;5.03;1.90;;;24.70;84.90;;;;;;5035451;28;20122;-69
2023/06/26 12:13:58;;;;;;;5.82;2.03;;;24.80;83.00;;;;;;5034949;28;20045;-70
2023/06/26 12:16:24;;;;;;;5.65;2.30;;;24.90;83.10;;;;;;5068295;28;20032;-70
2023/06/26 12:18:49;;;;;;;6.82;2.90;;;24.90;83.20;;;;;;5072841;28;20405;-70
2023/06/26 12:21:36;;;;;;;5.35;2.22;;;24.90;83.30;;;;;;5072874;28;20032;-70
2023/06/26 12:24:03;;;;;;;9.50;2.22;;;24.70;83.90;;;;;;5054629;28;20454;-69
2023/06/26 12:26:29;;;;;;;7.53;1.92;;;24.70;84.50;;;;;;5051741;28;20120;-69
2023/06/26 12:29:11;;;;;;;4.82;1.92;;;24.60;83.50;;;;;;5071759;28;20119;-69
2023/06/26 12:31:42;;;;;;;6.95;3.03;;;24.60;81.50;;;;;;5072586;28;20133;-70
2023/06/26 12:34:16;;;;;;;5.22;2.10;;;24.50;82.00;;;;;;5072637;28;20138;-70
2023/06/26 12:36:48;;;;;;;3.63;1.77;;;24.50;82.70;;;;;;5054903;28;20047;-70
2023/06/26 12:39:19;;;;;;;5.55;2.22;;;24.30;80.40;;;;;;5037759;28;20108;-70
2023/06/26 12:41:48;;;;;;;5.32;1.73;;;24.40;81.70;;;;;;5054456;28;20372;-69
2023/06/26 12:44:36;;;;;;;8.20;1.83;;;24.40;82.10;;;;;;5072295;28;20112;-69
2023/06/26 12:47:02;;;;;;;3.95;1.55;;;24.30;81.40;;;;;;5072394;28;20036;-70